sensor_id;sensor_type;location;lat;lon;timestamp;P1;durP1;ratioP1;P2;durP2;ratioP2
4961;SDS011;2496;52.468;13.342;2022-11-23T00:01:40;57.43;;;24.33;;
4961;SDS011;2496;52.468;13.342;2022-11-23T00:04:07;60.03;;;24.47;;
4961;SDS011;2496;52.468;13.342;2022-11-23T00:06:38;54.33;;;24.80;;
4961;SDS011;2496;52.468;13.342;2022-11-23T00:09:06;59.60;;;24.60;;
4961;SDS011;2496;52.468;13.342;2022-11-23T00:11:38;54.07;;;25.43;;
4961;SDS011;2496;52.468;13.342;2022-11-23T00:14:06;72.67;;;26.80;;
4961;SDS011;2496;52.468;13.342;2022-11-23T00:16:34;57.50;;;24.20;;
4961;SDS011;2496;52.468;13.342;2022-11-23T00:19:03;56.77;;;23.57;;
4961;SDS011;2496;52.468;13.342;2022-11-23T00:21:31;53.80;;;24.10;;
4961;SDS011;2496;52.468;13.342;2022-11-23T00:24:00;53.33;;;24.00;;
4961;SDS011;2496;52.468;13.342;2022-11-23T00:26:28;56.00;;;24.27;;
4961;SDS011;2496;52.468;13.342;2022-11-23T00:28:57;56.43;;;24.73;;
4961;SDS011;2496;52.468;13.342;2022-11-23T00:31:25;53.83;;;23.80;;
4961;SDS011;2496;52.468;13.342;2022-11-23T00:33:53;57.53;;;25.23;;
4961;SDS011;2496;52.468;13.342;2022-11-23T00:36:28;57.53;;;25.97;;
4961;SDS011;2496;52.468;13.342;2022-11-23T00:38:58;55.60;;;24.70;;
4961;SDS011;2496;52.468;13.342;2022-11-23T00:41:27;61.13;;;27.70;;
4961;SDS011;2496;52.468;13.342;2022-11-23T00:43:57;56.30;;;24.73;;
4961;SDS011;2496;52.468;13.342;2022-11-23T00:46:26;54.53;;;23.17;;
4961;SDS011;2496;52.468;13.342;2022-11-23T00:48:56;50.97;;;23.13;;
4961;SDS011;2496;52.468;13.342;2022-11-23T00:51:25;60.47;;;24.73;;
4961;SDS011;2496;52.468;13.342;2022-11-23T00:53:55;61.37;;;24.23;;
4961;SDS011;2496;52.468;13.342;2022-11-23T00:56:22;59.43;;;24.93;;
4961;SDS011;2496;52.468;13.342;2022-11-23T00:58:51;50.40;;;24.10;;
4961;SDS011;2496;52.468;13.342;2022-11-23T01:01:20;50.00;;;23.70;;
4961;SDS011;2496;52.468;13.342;2022-11-23T01:03:49;62.93;;;24.83;;
4961;SDS011;2496;52.468;13.342;2022-11-23T01:06:19;57.30;;;23.10;;
4961;SDS011;2496;52.468;13.342;2022-11-23T01:08:51;57.07;;;22.40;;
4961;SDS011;2496;52.468;13.342;2022-11-23T01:11:22;59.33;;;24.37;;
4961;SDS011;2496;52.468;13.342;2022-11-23T01:13:55;56.00;;;25.83;;
4961;SDS011;2496;52.468;13.342;2022-11-23T01:16:27;53.07;;;24.10;;
4961;SDS011;2496;52.468;13.342;2022-11-23T01:18:57;54.17;;;24.10;;
4961;SDS011;2496;52.468;13.342;2022-11-23T01:21:27;53.57;;;23.33;;
4961;SDS011;2496;52.468;13.342;2022-11-23T01:24:02;56.47;;;25.07;;
4961;SDS011;2496;52.468;13.342;2022-11-23T01:26:32;55.90;;;24.87;;
4961;SDS011;2496;52.468;13.342;2022-11-23T01:29:00;48.80;;;24.03;;
4961;SDS011;2496;52.468;13.342;2022-11-23T01:31:27;51.03;;;25.40;;
4961;SDS011;2496;52.468;13.342;2022-11-23T01:33:57;59.23;;;23.43;;
4961;SDS011;2496;52.468;13.342;2022-11-23T01:36:30;52.37;;;24.20;;
4961;SDS011;2496;52.468;13.342;2022-11-23T01:39:02;56.53;;;24.83;;
4961;SDS011;2496;52.468;13.342;2022-11-23T01:41:33;61.70;;;26.40;;
4961;SDS011;2496;52.468;13.342;2022-11-23T01:46:50;49.47;;;24.37;;
4961;SDS011;2496;52.468;13.342;2022-11-23T01:49:17;50.50;;;23.37;;
4961;SDS011;2496;52.468;13.342;2022-11-23T01:51:45;59.47;;;24.80;;
4961;SDS011;2496;52.468;13.342;2022-11-23T01:54:20;49.53;;;24.03;;
4961;SDS011;2496;52.468;13.342;2022-11-23T01:56:52;63.47;;;26.80;;
4961;SDS011;2496;52.468;13.342;2022-11-23T01:59:22;54.17;;;25.93;;
4961;SDS011;2496;52.468;13.342;2022-11-23T02:01:51;55.23;;;24.80;;
4961;SDS011;2496;52.468;13.342;2022-11-23T02:04:21;58.33;;;25.10;;
4961;SDS011;2496;52.468;13.342;2022-11-23T02:06:50;57.67;;;23.80;;
4961;SDS011;2496;52.468;13.342;2022-11-23T02:09:19;50.67;;;24.13;;
4961;SDS011;2496;52.468;13.342;2022-11-23T02:11:48;45.30;;;23.20;;
4961;SDS011;2496;52.468;13.342;2022-11-23T02:14:17;52.10;;;24.30;;
4961;SDS011;2496;52.468;13.342;2022-11-23T02:16:44;53.37;;;22.93;;
4961;SDS011;2496;52.468;13.342;2022-11-23T02:19:13;49.63;;;23.77;;
4961;SDS011;2496;52.468;13.342;2022-11-23T02:21:45;50.57;;;24.10;;
4961;SDS011;2496;52.468;13.342;2022-11-23T02:24:13;53.23;;;24.40;;
4961;SDS011;2496;52.468;13.342;2022-11-23T02:26:51;49.27;;;23.77;;
4961;SDS011;2496;52.468;13.342;2022-11-23T02:29:19;46.13;;;24.13;;
4961;SDS011;2496;52.468;13.342;2022-11-23T02:31:49;59.17;;;25.83;;
4961;SDS011;2496;52.468;13.342;2022-11-23T02:34:16;53.13;;;23.67;;
4961;SDS011;2496;52.468;13.342;2022-11-23T02:36:44;54.90;;;24.93;;
4961;SDS011;2496;52.468;13.342;2022-11-23T02:39:13;54.37;;;24.27;;
4961;SDS011;2496;52.468;13.342;2022-11-23T02:41:44;45.00;;;23.73;;
4961;SDS011;2496;52.468;13.342;2022-11-23T02:44:17;51.50;;;24.17;;
4961;SDS011;2496;52.468;13.342;2022-11-23T02:46:51;43.00;;;22.80;;
4961;SDS011;2496;52.468;13.342;2022-11-23T02:49:19;49.13;;;22.20;;
4961;SDS011;2496;52.468;13.342;2022-11-23T02:51:46;50.80;;;24.70;;
4961;SDS011;2496;52.468;13.342;2022-11-23T02:54:13;55.87;;;22.93;;
4961;SDS011;2496;52.468;13.342;2022-11-23T02:56:40;57.37;;;23.53;;
4961;SDS011;2496;52.468;13.342;2022-11-23T02:59:07;49.90;;;23.30;;
4961;SDS011;2496;52.468;13.342;2022-11-23T03:01:35;42.83;;;22.17;;
4961;SDS011;2496;52.468;13.342;2022-11-23T03:04:04;46.57;;;22.90;;
4961;SDS011;2496;52.468;13.342;2022-11-23T03:06:31;47.17;;;23.20;;
4961;SDS011;2496;52.468;13.342;2022-11-23T03:08:58;57.77;;;23.40;;
4961;SDS011;2496;52.468;13.342;2022-11-23T03:11:25;46.13;;;21.20;;
4961;SDS011;2496;52.468;13.342;2022-11-23T03:13:52;54.27;;;21.80;;
4961;SDS011;2496;52.468;13.342;2022-11-23T03:16:19;57.93;;;22.80;;
4961;SDS011;2496;52.468;13.342;2022-11-23T03:18:48;55.77;;;22.93;;
4961;SDS011;2496;52.468;13.342;2022-11-23T03:21:16;58.40;;;23.47;;
4961;SDS011;2496;52.468;13.342;2022-11-23T03:23:43;53.30;;;22.40;;
4961;SDS011;2496;52.468;13.342;2022-11-23T03:26:10;54.80;;;24.27;;
4961;SDS011;2496;52.468;13.342;2022-11-23T03:28:37;55.83;;;24.13;;
4961;SDS011;2496;52.468;13.342;2022-11-23T03:31:04;53.03;;;22.63;;
4961;SDS011;2496;52.468;13.342;2022-11-23T03:33:31;47.87;;;21.57;;
4961;SDS011;2496;52.468;13.342;2022-11-23T03:36:00;55.23;;;23.27;;
4961;SDS011;2496;52.468;13.342;2022-11-23T03:38:27;45.30;;;20.77;;
4961;SDS011;2496;52.468;13.342;2022-11-23T03:40:54;55.00;;;24.60;;
4961;SDS011;2496;52.468;13.342;2022-11-23T03:43:21;46.97;;;23.03;;
4961;SDS011;2496;52.468;13.342;2022-11-23T03:45:48;45.43;;;23.10;;
4961;SDS011;2496;52.468;13.342;2022-11-23T03:48:15;44.63;;;21.90;;
4961;SDS011;2496;52.468;13.342;2022-11-23T03:50:43;48.33;;;22.83;;
4961;SDS011;2496;52.468;13.342;2022-11-23T03:53:12;51.93;;;23.40;;
4961;SDS011;2496;52.468;13.342;2022-11-23T03:55:39;56.00;;;23.50;;
4961;SDS011;2496;52.468;13.342;2022-11-23T03:58:06;51.67;;;22.87;;
4961;SDS011;2496;52.468;13.342;2022-11-23T04:00:33;49.27;;;22.60;;
4961;SDS011;2496;52.468;13.342;2022-11-23T04:03:00;53.00;;;24.00;;
4961;SDS011;2496;52.468;13.342;2022-11-23T04:05:27;53.17;;;21.67;;
4961;SDS011;2496;52.468;13.342;2022-11-23T04:07:53;46.27;;;23.73;;
4961;SDS011;2496;52.468;13.342;2022-11-23T04:10:22;48.67;;;22.60;;
4961;SDS011;2496;52.468;13.342;2022-11-23T04:12:49;50.43;;;22.03;;
4961;SDS011;2496;52.468;13.342;2022-11-23T04:15:17;47.37;;;23.17;;
4961;SDS011;2496;52.468;13.342;2022-11-23T04:17:44;54.03;;;21.57;;
4961;SDS011;2496;52.468;13.342;2022-11-23T04:20:12;53.33;;;22.17;;
4961;SDS011;2496;52.468;13.342;2022-11-23T04:22:39;43.93;;;21.27;;
4961;SDS011;2496;52.468;13.342;2022-11-23T04:25:06;47.40;;;22.73;;
4961;SDS011;2496;52.468;13.342;2022-11-23T04:27:35;48.30;;;22.10;;
4961;SDS011;2496;52.468;13.342;2022-11-23T04:30:03;48.00;;;23.10;;
4961;SDS011;2496;52.468;13.342;2022-11-23T04:32:30;43.23;;;19.93;;
4961;SDS011;2496;52.468;13.342;2022-11-23T04:34:57;45.63;;;23.30;;
4961;SDS011;2496;52.468;13.342;2022-11-23T04:37:24;47.30;;;22.40;;
4961;SDS011;2496;52.468;13.342;2022-11-23T04:39:51;47.37;;;22.80;;
4961;SDS011;2496;52.468;13.342;2022-11-23T04:42:18;59.40;;;23.07;;
4961;SDS011;2496;52.468;13.342;2022-11-23T04:44:47;45.67;;;21.13;;
4961;SDS011;2496;52.468;13.342;2022-11-23T04:47:14;50.80;;;21.70;;
4961;SDS011;2496;52.468;13.342;2022-11-23T04:49:41;53.83;;;21.87;;
4961;SDS011;2496;52.468;13.342;2022-11-23T04:52:08;43.90;;;21.40;;
4961;SDS011;2496;52.468;13.342;2022-11-23T04:54:35;45.53;;;21.40;;
4961;SDS011;2496;52.468;13.342;2022-11-23T04:57:02;47.17;;;22.23;;
4961;SDS011;2496;52.468;13.342;2022-11-23T04:59:29;43.33;;;20.93;;
4961;SDS011;2496;52.468;13.342;2022-11-23T05:01:57;45.10;;;20.90;;
4961;SDS011;2496;52.468;13.342;2022-11-23T05:04:24;50.57;;;23.07;;
4961;SDS011;2496;52.468;13.342;2022-11-23T05:06:51;49.57;;;22.10;;
4961;SDS011;2496;52.468;13.342;2022-11-23T05:09:18;41.43;;;20.47;;
4961;SDS011;2496;52.468;13.342;2022-11-23T05:11:45;46.30;;;19.90;;
4961;SDS011;2496;52.468;13.342;2022-11-23T05:14:12;41.80;;;21.77;;
4961;SDS011;2496;52.468;13.342;2022-11-23T05:16:39;48.63;;;21.43;;
4961;SDS011;2496;52.468;13.342;2022-11-23T05:19:08;46.00;;;21.50;;
4961;SDS011;2496;52.468;13.342;2022-11-23T05:21:35;52.97;;;22.73;;
4961;SDS011;2496;52.468;13.342;2022-11-23T05:24:02;46.17;;;23.00;;
4961;SDS011;2496;52.468;13.342;2022-11-23T05:26:29;39.23;;;20.67;;
4961;SDS011;2496;52.468;13.342;2022-11-23T05:28:56;48.80;;;22.27;;
4961;SDS011;2496;52.468;13.342;2022-11-23T05:31:23;47.00;;;21.00;;
4961;SDS011;2496;52.468;13.342;2022-11-23T05:33:50;38.40;;;20.20;;
4961;SDS011;2496;52.468;13.342;2022-11-23T05:36:18;49.43;;;22.73;;
4961;SDS011;2496;52.468;13.342;2022-11-23T05:38:45;44.97;;;20.13;;
4961;SDS011;2496;52.468;13.342;2022-11-23T05:41:12;49.67;;;20.63;;
4961;SDS011;2496;52.468;13.342;2022-11-23T05:43:39;44.10;;;20.07;;
4961;SDS011;2496;52.468;13.342;2022-11-23T05:46:06;40.77;;;20.27;;
4961;SDS011;2496;52.468;13.342;2022-11-23T05:48:33;40.33;;;20.33;;
4961;SDS011;2496;52.468;13.342;2022-11-23T05:51:00;41.40;;;19.30;;
4961;SDS011;2496;52.468;13.342;2022-11-23T05:53:29;45.17;;;21.57;;
4961;SDS011;2496;52.468;13.342;2022-11-23T05:55:57;38.87;;;19.10;;
4961;SDS011;2496;52.468;13.342;2022-11-23T05:58:25;43.30;;;21.20;;
4961;SDS011;2496;52.468;13.342;2022-11-23T06:00:55;40.00;;;19.83;;
4961;SDS011;2496;52.468;13.342;2022-11-23T06:03:23;40.10;;;20.13;;
4961;SDS011;2496;52.468;13.342;2022-11-23T06:05:50;49.77;;;21.53;;
4961;SDS011;2496;52.468;13.342;2022-11-23T06:08:18;42.00;;;20.73;;
4961;SDS011;2496;52.468;13.342;2022-11-23T06:10:46;42.43;;;19.70;;
4961;SDS011;2496;52.468;13.342;2022-11-23T06:13:13;45.73;;;20.80;;
4961;SDS011;2496;52.468;13.342;2022-11-23T06:15:40;37.33;;;20.27;;
4961;SDS011;2496;52.468;13.342;2022-11-23T06:18:07;42.03;;;20.10;;
4961;SDS011;2496;52.468;13.342;2022-11-23T06:20:35;47.37;;;19.83;;
4961;SDS011;2496;52.468;13.342;2022-11-23T06:23:02;47.93;;;20.87;;
4961;SDS011;2496;52.468;13.342;2022-11-23T06:25:29;41.90;;;20.50;;
4961;SDS011;2496;52.468;13.342;2022-11-23T06:27:58;43.40;;;22.13;;
4961;SDS011;2496;52.468;13.342;2022-11-23T06:30:27;41.47;;;19.43;;
4961;SDS011;2496;52.468;13.342;2022-11-23T06:32:55;40.93;;;19.70;;
4961;SDS011;2496;52.468;13.342;2022-11-23T06:35:23;50.07;;;20.37;;
4961;SDS011;2496;52.468;13.342;2022-11-23T06:37:50;40.63;;;19.53;;
4961;SDS011;2496;52.468;13.342;2022-11-23T06:40:18;45.43;;;21.00;;
4961;SDS011;2496;52.468;13.342;2022-11-23T06:42:45;44.37;;;21.10;;
4961;SDS011;2496;52.468;13.342;2022-11-23T06:45:14;47.60;;;20.40;;
4961;SDS011;2496;52.468;13.342;2022-11-23T06:47:41;44.87;;;19.10;;
4961;SDS011;2496;52.468;13.342;2022-11-23T06:50:09;39.23;;;19.27;;
4961;SDS011;2496;52.468;13.342;2022-11-23T06:52:36;40.47;;;20.10;;
4961;SDS011;2496;52.468;13.342;2022-11-23T06:55:03;38.53;;;19.20;;
4961;SDS011;2496;52.468;13.342;2022-11-23T06:57:30;37.90;;;18.83;;
4961;SDS011;2496;52.468;13.342;2022-11-23T06:59:57;37.90;;;18.40;;
4961;SDS011;2496;52.468;13.342;2022-11-23T07:02:26;43.37;;;21.57;;
4961;SDS011;2496;52.468;13.342;2022-11-23T07:04:53;44.40;;;19.53;;
4961;SDS011;2496;52.468;13.342;2022-11-23T07:07:19;39.23;;;18.50;;
4961;SDS011;2496;52.468;13.342;2022-11-23T07:09:46;42.43;;;19.07;;
4961;SDS011;2496;52.468;13.342;2022-11-23T07:12:13;49.47;;;21.77;;
4961;SDS011;2496;52.468;13.342;2022-11-23T07:14:40;48.57;;;20.33;;
4961;SDS011;2496;52.468;13.342;2022-11-23T07:17:07;43.50;;;22.17;;
4961;SDS011;2496;52.468;13.342;2022-11-23T07:19:36;40.17;;;18.37;;
4961;SDS011;2496;52.468;13.342;2022-11-23T07:22:03;37.63;;;17.80;;
4961;SDS011;2496;52.468;13.342;2022-11-23T07:24:30;42.87;;;19.40;;
4961;SDS011;2496;52.468;13.342;2022-11-23T07:26:57;42.10;;;21.77;;
4961;SDS011;2496;52.468;13.342;2022-11-23T07:29:24;42.00;;;20.17;;
4961;SDS011;2496;52.468;13.342;2022-11-23T07:31:51;42.20;;;19.53;;
4961;SDS011;2496;52.468;13.342;2022-11-23T07:34:18;37.50;;;19.43;;
4961;SDS011;2496;52.468;13.342;2022-11-23T07:36:46;38.30;;;19.37;;
4961;SDS011;2496;52.468;13.342;2022-11-23T07:39:13;36.70;;;18.60;;
4961;SDS011;2496;52.468;13.342;2022-11-23T07:41:40;40.13;;;21.30;;
4961;SDS011;2496;52.468;13.342;2022-11-23T07:44:07;46.33;;;20.63;;
4961;SDS011;2496;52.468;13.342;2022-11-23T07:46:34;44.03;;;20.40;;
4961;SDS011;2496;52.468;13.342;2022-11-23T07:49:01;45.13;;;20.83;;
4961;SDS011;2496;52.468;13.342;2022-11-23T07:51:28;40.87;;;19.63;;
4961;SDS011;2496;52.468;13.342;2022-11-23T07:53:57;41.13;;;18.67;;
4961;SDS011;2496;52.468;13.342;2022-11-23T07:56:24;40.23;;;18.33;;
4961;SDS011;2496;52.468;13.342;2022-11-23T07:58:51;41.37;;;20.73;;
4961;SDS011;2496;52.468;13.342;2022-11-23T08:01:18;40.37;;;19.23;;
4961;SDS011;2496;52.468;13.342;2022-11-23T08:03:45;46.87;;;21.17;;
4961;SDS011;2496;52.468;13.342;2022-11-23T08:06:13;38.43;;;19.10;;
4961;SDS011;2496;52.468;13.342;2022-11-23T08:08:41;42.47;;;20.37;;
4961;SDS011;2496;52.468;13.342;2022-11-23T08:11:09;45.70;;;19.77;;
4961;SDS011;2496;52.468;13.342;2022-11-23T08:13:38;39.07;;;20.53;;
4961;SDS011;2496;52.468;13.342;2022-11-23T08:16:06;43.30;;;19.90;;
4961;SDS011;2496;52.468;13.342;2022-11-23T08:18:33;41.37;;;19.87;;
4961;SDS011;2496;52.468;13.342;2022-11-23T08:21:00;43.97;;;22.30;;
4961;SDS011;2496;52.468;13.342;2022-11-23T08:23:28;48.27;;;22.47;;
4961;SDS011;2496;52.468;13.342;2022-11-23T08:25:55;46.73;;;21.10;;
4961;SDS011;2496;52.468;13.342;2022-11-23T08:28:24;37.47;;;19.70;;
4961;SDS011;2496;52.468;13.342;2022-11-23T08:30:51;42.97;;;20.70;;
4961;SDS011;2496;52.468;13.342;2022-11-23T08:33:18;39.70;;;21.37;;
4961;SDS011;2496;52.468;13.342;2022-11-23T08:35:45;49.33;;;21.83;;
4961;SDS011;2496;52.468;13.342;2022-11-23T08:38:12;36.77;;;20.00;;
4961;SDS011;2496;52.468;13.342;2022-11-23T08:40:39;40.00;;;19.50;;
4961;SDS011;2496;52.468;13.342;2022-11-23T08:43:06;45.20;;;20.57;;
4961;SDS011;2496;52.468;13.342;2022-11-23T08:45:34;44.67;;;18.70;;
4961;SDS011;2496;52.468;13.342;2022-11-23T08:48:01;37.80;;;17.40;;
4961;SDS011;2496;52.468;13.342;2022-11-23T08:50:29;35.47;;;19.37;;
4961;SDS011;2496;52.468;13.342;2022-11-23T08:52:58;39.87;;;19.00;;
4961;SDS011;2496;52.468;13.342;2022-11-23T08:55:26;45.33;;;20.30;;
4961;SDS011;2496;52.468;13.342;2022-11-23T08:57:53;38.90;;;17.60;;
4961;SDS011;2496;52.468;13.342;2022-11-23T09:00:21;37.40;;;18.23;;
4961;SDS011;2496;52.468;13.342;2022-11-23T09:02:49;37.73;;;19.70;;
4961;SDS011;2496;52.468;13.342;2022-11-23T09:05:16;36.70;;;17.67;;
4961;SDS011;2496;52.468;13.342;2022-11-23T09:07:43;36.90;;;18.47;;
4961;SDS011;2496;52.468;13.342;2022-11-23T09:10:10;34.30;;;17.70;;
4961;SDS011;2496;52.468;13.342;2022-11-23T09:12:37;39.20;;;18.20;;
4961;SDS011;2496;52.468;13.342;2022-11-23T09:15:05;42.07;;;18.47;;
4961;SDS011;2496;52.468;13.342;2022-11-23T09:17:32;40.13;;;18.40;;
4961;SDS011;2496;52.468;13.342;2022-11-23T09:20:01;37.47;;;18.53;;
4961;SDS011;2496;52.468;13.342;2022-11-23T09:22:28;36.37;;;17.77;;
4961;SDS011;2496;52.468;13.342;2022-11-23T09:24:55;35.80;;;18.10;;
4961;SDS011;2496;52.468;13.342;2022-11-23T09:27:22;39.10;;;18.63;;
4961;SDS011;2496;52.468;13.342;2022-11-23T09:29:49;32.17;;;16.40;;
4961;SDS011;2496;52.468;13.342;2022-11-23T09:32:16;30.70;;;16.80;;
4961;SDS011;2496;52.468;13.342;2022-11-23T09:34:43;36.03;;;15.93;;
4961;SDS011;2496;52.468;13.342;2022-11-23T09:37:12;31.73;;;17.43;;
4961;SDS011;2496;52.468;13.342;2022-11-23T09:39:39;33.40;;;16.70;;
4961;SDS011;2496;52.468;13.342;2022-11-23T09:42:14;32.97;;;17.67;;
4961;SDS011;2496;52.468;13.342;2022-11-23T09:44:58;31.07;;;16.83;;
4961;SDS011;2496;52.468;13.342;2022-11-23T09:47:45;26.47;;;14.90;;
4961;SDS011;2496;52.468;13.342;2022-11-23T09:50:26;30.93;;;16.40;;
4961;SDS011;2496;52.468;13.342;2022-11-23T09:52:56;29.70;;;15.53;;
4961;SDS011;2496;52.468;13.342;2022-11-23T09:55:31;32.13;;;15.60;;
4961;SDS011;2496;52.468;13.342;2022-11-23T09:58:03;34.63;;;16.87;;
4961;SDS011;2496;52.468;13.342;2022-11-23T10:00:34;32.53;;;15.03;;
4961;SDS011;2496;52.468;13.342;2022-11-23T10:03:04;29.53;;;15.93;;
4961;SDS011;2496;52.468;13.342;2022-11-23T10:05:32;25.57;;;14.40;;
4961;SDS011;2496;52.468;13.342;2022-11-23T10:08:05;28.43;;;15.17;;
4961;SDS011;2496;52.468;13.342;2022-11-23T10:10:40;26.03;;;14.00;;
4961;SDS011;2496;52.468;13.342;2022-11-23T10:13:14;30.40;;;15.50;;
4961;SDS011;2496;52.468;13.342;2022-11-23T10:15:57;27.47;;;14.17;;
4961;SDS011;2496;52.468;13.342;2022-11-23T10:18:43;22.63;;;12.80;;
4961;SDS011;2496;52.468;13.342;2022-11-23T10:21:24;27.87;;;14.80;;
4961;SDS011;2496;52.468;13.342;2022-11-23T10:24:04;30.03;;;14.33;;
4961;SDS011;2496;52.468;13.342;2022-11-23T10:26:43;27.47;;;14.47;;
4961;SDS011;2496;52.468;13.342;2022-11-23T10:29:13;28.07;;;14.43;;
4961;SDS011;2496;52.468;13.342;2022-11-23T10:31:46;25.33;;;13.63;;
4961;SDS011;2496;52.468;13.342;2022-11-23T10:34:14;28.30;;;13.80;;
4961;SDS011;2496;52.468;13.342;2022-11-23T10:36:47;28.67;;;14.53;;
4961;SDS011;2496;52.468;13.342;2022-11-23T10:39:20;24.80;;;13.47;;
4961;SDS011;2496;52.468;13.342;2022-11-23T10:41:49;33.10;;;15.23;;
4961;SDS011;2496;52.468;13.342;2022-11-23T10:44:27;27.83;;;15.17;;
4961;SDS011;2496;52.468;13.342;2022-11-23T10:46:56;29.57;;;13.93;;
4961;SDS011;2496;52.468;13.342;2022-11-23T10:49:24;27.90;;;14.60;;
4961;SDS011;2496;52.468;13.342;2022-11-23T10:51:54;24.30;;;12.67;;
4961;SDS011;2496;52.468;13.342;2022-11-23T10:54:25;30.80;;;15.63;;
4961;SDS011;2496;52.468;13.342;2022-11-23T10:56:54;22.40;;;13.50;;
4961;SDS011;2496;52.468;13.342;2022-11-23T10:59:29;21.87;;;12.47;;
4961;SDS011;2496;52.468;13.342;2022-11-23T11:02:10;29.83;;;14.03;;
4961;SDS011;2496;52.468;13.342;2022-11-23T11:04:40;23.93;;;13.10;;
4961;SDS011;2496;52.468;13.342;2022-11-23T11:07:22;23.47;;;13.60;;
4961;SDS011;2496;52.468;13.342;2022-11-23T11:09:53;23.60;;;13.30;;
4961;SDS011;2496;52.468;13.342;2022-11-23T11:12:21;28.13;;;15.07;;
4961;SDS011;2496;52.468;13.342;2022-11-23T11:14:56;29.20;;;15.17;;
4961;SDS011;2496;52.468;13.342;2022-11-23T11:17:27;20.93;;;13.33;;
4961;SDS011;2496;52.468;13.342;2022-11-23T11:19:56;25.33;;;13.10;;
4961;SDS011;2496;52.468;13.342;2022-11-23T11:22:25;23.93;;;12.57;;
4961;SDS011;2496;52.468;13.342;2022-11-23T11:25:00;20.73;;;12.20;;
4961;SDS011;2496;52.468;13.342;2022-11-23T11:27:29;25.60;;;13.83;;
4961;SDS011;2496;52.468;13.342;2022-11-23T11:30:00;19.23;;;12.10;;
4961;SDS011;2496;52.468;13.342;2022-11-23T11:32:32;25.00;;;13.27;;
4961;SDS011;2496;52.468;13.342;2022-11-23T11:35:08;22.50;;;12.50;;
4961;SDS011;2496;52.468;13.342;2022-11-23T11:37:39;23.00;;;12.80;;
4961;SDS011;2496;52.468;13.342;2022-11-23T11:40:11;21.87;;;11.97;;
4961;SDS011;2496;52.468;13.342;2022-11-23T11:42:45;22.80;;;10.80;;
4961;SDS011;2496;52.468;13.342;2022-11-23T11:45:18;21.90;;;12.60;;
4961;SDS011;2496;52.468;13.342;2022-11-23T11:47:52;23.77;;;13.33;;
4961;SDS011;2496;52.468;13.342;2022-11-23T11:50:25;22.23;;;13.30;;
4961;SDS011;2496;52.468;13.342;2022-11-23T11:52:55;23.20;;;12.97;;
4961;SDS011;2496;52.468;13.342;2022-11-23T11:55:28;28.53;;;12.30;;
4961;SDS011;2496;52.468;13.342;2022-11-23T11:58:08;24.17;;;12.40;;
4961;SDS011;2496;52.468;13.342;2022-11-23T12:00:37;21.70;;;12.67;;
4961;SDS011;2496;52.468;13.342;2022-11-23T12:03:11;25.43;;;13.90;;
4961;SDS011;2496;52.468;13.342;2022-11-23T12:05:46;27.77;;;13.00;;
4961;SDS011;2496;52.468;13.342;2022-11-23T12:08:15;23.77;;;13.00;;
4961;SDS011;2496;52.468;13.342;2022-11-23T12:10:49;19.47;;;12.60;;
4961;SDS011;2496;52.468;13.342;2022-11-23T12:13:19;22.27;;;13.10;;
4961;SDS011;2496;52.468;13.342;2022-11-23T12:15:49;20.60;;;12.63;;
4961;SDS011;2496;52.468;13.342;2022-11-23T12:18:30;21.37;;;12.17;;
4961;SDS011;2496;52.468;13.342;2022-11-23T12:21:04;25.67;;;12.90;;
4961;SDS011;2496;52.468;13.342;2022-11-23T12:23:45;23.13;;;11.50;;
4961;SDS011;2496;52.468;13.342;2022-11-23T12:26:21;16.07;;;11.33;;
4961;SDS011;2496;52.468;13.342;2022-11-23T12:31:52;23.53;;;13.60;;
4961;SDS011;2496;52.468;13.342;2022-11-23T12:34:30;23.00;;;12.80;;
4961;SDS011;2496;52.468;13.342;2022-11-23T12:37:19;21.33;;;10.80;;
4961;SDS011;2496;52.468;13.342;2022-11-23T12:40:03;23.80;;;11.87;;
4961;SDS011;2496;52.468;13.342;2022-11-23T12:42:44;19.43;;;11.70;;
4961;SDS011;2496;52.468;13.342;2022-11-23T12:51:04;17.27;;;11.50;;
4961;SDS011;2496;52.468;13.342;2022-11-23T12:53:44;22.97;;;12.53;;
4961;SDS011;2496;52.468;13.342;2022-11-23T12:56:23;20.53;;;11.40;;
4961;SDS011;2496;52.468;13.342;2022-11-23T12:59:04;19.93;;;12.17;;
4961;SDS011;2496;52.468;13.342;2022-11-23T13:01:35;18.80;;;10.80;;
4961;SDS011;2496;52.468;13.342;2022-11-23T13:07:17;23.40;;;12.80;;
4961;SDS011;2496;52.468;13.342;2022-11-23T13:10:13;19.17;;;12.00;;
4961;SDS011;2496;52.468;13.342;2022-11-23T13:12:53;20.27;;;12.43;;
4961;SDS011;2496;52.468;13.342;2022-11-23T13:15:44;28.73;;;12.17;;
4961;SDS011;2496;52.468;13.342;2022-11-23T13:18:40;18.70;;;11.60;;
4961;SDS011;2496;52.468;13.342;2022-11-23T13:21:16;21.55;;;13.80;;
4961;SDS011;2496;52.468;13.342;2022-11-23T13:23:54;23.73;;;13.03;;
4961;SDS011;2496;52.468;13.342;2022-11-23T13:26:21;22.23;;;12.73;;
4961;SDS011;2496;52.468;13.342;2022-11-23T13:28:50;21.90;;;10.77;;
4961;SDS011;2496;52.468;13.342;2022-11-23T13:31:23;32.20;;;13.60;;
4961;SDS011;2496;52.468;13.342;2022-11-23T13:33:55;23.43;;;12.23;;
4961;SDS011;2496;52.468;13.342;2022-11-23T13:36:38;22.40;;;11.60;;
4961;SDS011;2496;52.468;13.342;2022-11-23T13:42:23;25.30;;;11.80;;
4961;SDS011;2496;52.468;13.342;2022-11-23T13:50:54;22.53;;;12.97;;
4961;SDS011;2496;52.468;13.342;2022-11-23T13:53:24;22.27;;;11.20;;
4961;SDS011;2496;52.468;13.342;2022-11-23T13:55:54;31.90;;;13.10;;
4961;SDS011;2496;52.468;13.342;2022-11-23T13:58:34;20.93;;;10.70;;
4961;SDS011;2496;52.468;13.342;2022-11-23T14:01:03;17.97;;;10.27;;
4961;SDS011;2496;52.468;13.342;2022-11-23T14:06:23;21.53;;;11.50;;
4961;SDS011;2496;52.468;13.342;2022-11-23T14:08:57;23.77;;;11.80;;
4961;SDS011;2496;52.468;13.342;2022-11-23T14:11:28;23.90;;;12.80;;
4961;SDS011;2496;52.468;13.342;2022-11-23T14:13:59;20.03;;;11.90;;
4961;SDS011;2496;52.468;13.342;2022-11-23T14:16:52;19.50;;;11.13;;
4961;SDS011;2496;52.468;13.342;2022-11-23T14:19:35;21.77;;;11.20;;
4961;SDS011;2496;52.468;13.342;2022-11-23T14:22:12;24.00;;;10.83;;
4961;SDS011;2496;52.468;13.342;2022-11-23T14:24:55;17.60;;;11.27;;
4961;SDS011;2496;52.468;13.342;2022-11-23T14:27:43;15.43;;;9.87;;
4961;SDS011;2496;52.468;13.342;2022-11-23T14:30:24;19.93;;;10.67;;
4961;SDS011;2496;52.468;13.342;2022-11-23T14:33:04;19.60;;;11.20;;
4961;SDS011;2496;52.468;13.342;2022-11-23T14:35:47;21.27;;;11.37;;
4961;SDS011;2496;52.468;13.342;2022-11-23T14:38:29;19.77;;;11.17;;
4961;SDS011;2496;52.468;13.342;2022-11-23T14:41:05;21.93;;;10.70;;
4961;SDS011;2496;52.468;13.342;2022-11-23T14:43:35;32.47;;;12.67;;
4961;SDS011;2496;52.468;13.342;2022-11-23T14:46:13;23.67;;;12.00;;
4961;SDS011;2496;52.468;13.342;2022-11-23T14:48:43;23.43;;;12.20;;
4961;SDS011;2496;52.468;13.342;2022-11-23T14:51:12;25.13;;;12.33;;
4961;SDS011;2496;52.468;13.342;2022-11-23T14:53:42;19.23;;;12.40;;
4961;SDS011;2496;52.468;13.342;2022-11-23T14:56:17;19.20;;;11.10;;
4961;SDS011;2496;52.468;13.342;2022-11-23T14:58:48;24.27;;;12.67;;
4961;SDS011;2496;52.468;13.342;2022-11-23T15:01:17;21.67;;;12.20;;
4961;SDS011;2496;52.468;13.342;2022-11-23T15:03:54;25.00;;;12.07;;
4961;SDS011;2496;52.468;13.342;2022-11-23T15:06:25;26.20;;;12.80;;
4961;SDS011;2496;52.468;13.342;2022-11-23T15:08:58;30.43;;;12.80;;
4961;SDS011;2496;52.468;13.342;2022-11-23T15:11:33;25.83;;;12.20;;
4961;SDS011;2496;52.468;13.342;2022-11-23T15:14:03;21.43;;;12.40;;
4961;SDS011;2496;52.468;13.342;2022-11-23T15:16:43;26.37;;;14.70;;
4961;SDS011;2496;52.468;13.342;2022-11-23T15:19:18;34.57;;;11.40;;